sensor_id;sensor_type;location;lat;lon;timestamp;temperature;humidity
13186;DHT22;6658;53.080;7.428;2022-11-24T00:02:00;7.30;99.90
13186;DHT22;6658;53.080;7.428;2022-11-24T00:04:26;7.30;99.90
13186;DHT22;6658;53.080;7.428;2022-11-24T00:06:51;7.20;99.90
13186;DHT22;6658;53.080;7.428;2022-11-24T00:09:20;7.20;99.90
13186;DHT22;6658;53.080;7.428;2022-11-24T00:11:45;7.20;99.90
13186;DHT22;6658;53.080;7.428;2022-11-24T00:14:11;7.30;99.90
13186;DHT22;6658;53.080;7.428;2022-11-24T00:16:37;7.40;99.90
13186;DHT22;6658;53.080;7.428;2022-11-24T00:19:05;7.40;99.90
13186;DHT22;6658;53.080;7.428;2022-11-24T00:21:32;7.50;99.90
13186;DHT22;6658;53.080;7.428;2022-11-24T00:23:58;7.50;99.90
13186;DHT22;6658;53.080;7.428;2022-11-24T00:26:26;7.60;99.90
13186;DHT22;6658;53.080;7.428;2022-11-24T00:28:54;7.60;99.90
13186;DHT22;6658;53.080;7.428;2022-11-24T00:31:23;7.70;99.90
13186;DHT22;6658;53.080;7.428;2022-11-24T00:33:52;7.70;99.90
13186;DHT22;6658;53.080;7.428;2022-11-24T00:36:19;7.80;99.90
13186;DHT22;6658;53.080;7.428;2022-11-24T00:38:45;7.80;99.90
13186;DHT22;6658;53.080;7.428;2022-11-24T00:41:11;7.90;99.90
13186;DHT22;6658;53.080;7.428;2022-11-24T00:43:36;7.90;99.90
13186;DHT22;6658;53.080;7.428;2022-11-24T00:46:02;7.90;99.90
13186;DHT22;6658;53.080;7.428;2022-11-24T00:48:29;7.90;99.90
13186;DHT22;6658;53.080;7.428;2022-11-24T00:51:01;7.90;99.90
13186;DHT22;6658;53.080;7.428;2022-11-24T00:53:27;7.90;99.90
13186;DHT22;6658;53.080;7.428;2022-11-24T00:55:53;7.90;99.90
13186;DHT22;6658;53.080;7.428;2022-11-24T00:58:20;7.90;99.90
13186;DHT22;6658;53.080;7.428;2022-11-24T01:00:46;7.90;99.90
13186;DHT22;6658;53.080;7.428;2022-11-24T01:03:12;7.80;99.90
13186;DHT22;6658;53.080;7.428;2022-11-24T01:05:39;7.80;99.90
13186;DHT22;6658;53.080;7.428;2022-11-24T01:08:05;7.70;99.90
13186;DHT22;6658;53.080;7.428;2022-11-24T01:10:31;7.70;99.90
13186;DHT22;6658;53.080;7.428;2022-11-24T01:12:58;7.60;99.90
13186;DHT22;6658;53.080;7.428;2022-11-24T01:15:24;7.50;99.90
13186;DHT22;6658;53.080;7.428;2022-11-24T01:17:49;7.40;99.90
13186;DHT22;6658;53.080;7.428;2022-11-24T01:20:15;7.30;99.90
13186;DHT22;6658;53.080;7.428;2022-11-24T01:22:41;7.30;99.90
13186;DHT22;6658;53.080;7.428;2022-11-24T01:25:09;7.20;99.90
13186;DHT22;6658;53.080;7.428;2022-11-24T01:27:35;7.10;99.90
13186;DHT22;6658;53.080;7.428;2022-11-24T01:30:01;7.10;99.90
13186;DHT22;6658;53.080;7.428;2022-11-24T01:32:27;7.00;99.90
13186;DHT22;6658;53.080;7.428;2022-11-24T01:34:53;7.00;99.90
13186;DHT22;6658;53.080;7.428;2022-11-24T01:37:18;6.90;99.90
13186;DHT22;6658;53.080;7.428;2022-11-24T01:39:44;6.90;99.90
13186;DHT22;6658;53.080;7.428;2022-11-24T01:42:10;6.80;99.90
13186;DHT22;6658;53.080;7.428;2022-11-24T01:44:36;6.80;99.90
13186;DHT22;6658;53.080;7.428;2022-11-24T01:49:50;6.80;99.90
13186;DHT22;6658;53.080;7.428;2022-11-24T01:52:38;6.70;99.90
13186;DHT22;6658;53.080;7.428;2022-11-24T01:55:08;6.70;99.90
13186;DHT22;6658;53.080;7.428;2022-11-24T01:57:42;6.70;99.90
13186;DHT22;6658;53.080;7.428;2022-11-24T02:00:11;6.80;99.90
13186;DHT22;6658;53.080;7.428;2022-11-24T02:02:38;6.80;99.90
13186;DHT22;6658;53.080;7.428;2022-11-24T02:05:10;6.80;99.90
13186;DHT22;6658;53.080;7.428;2022-11-24T02:07:38;6.70;99.90
13186;DHT22;6658;53.080;7.428;2022-11-24T02:10:11;6.70;99.90
13186;DHT22;6658;53.080;7.428;2022-11-24T02:12:40;6.70;99.90
13186;DHT22;6658;53.080;7.428;2022-11-24T02:15:08;6.70;99.90
13186;DHT22;6658;53.080;7.428;2022-11-24T02:17:34;6.70;99.90
13186;DHT22;6658;53.080;7.428;2022-11-24T02:20:03;6.70;99.90
13186;DHT22;6658;53.080;7.428;2022-11-24T02:28:06;6.70;99.90
13186;DHT22;6658;53.080;7.428;2022-11-24T02:30:34;6.70;99.90
13186;DHT22;6658;53.080;7.428;2022-11-24T02:32:59;6.80;99.90
13186;DHT22;6658;53.080;7.428;2022-11-24T02:35:27;6.80;99.90
13186;DHT22;6658;53.080;7.428;2022-11-24T02:37:53;6.80;99.90
13186;DHT22;6658;53.080;7.428;2022-11-24T02:40:24;6.80;99.90
13186;DHT22;6658;53.080;7.428;2022-11-24T02:42:54;6.80;99.90
13186;DHT22;6658;53.080;7.428;2022-11-24T02:45:20;6.70;99.90
13186;DHT22;6658;53.080;7.428;2022-11-24T02:47:47;6.70;99.90
13186;DHT22;6658;53.080;7.428;2022-11-24T02:50:13;6.70;99.90
13186;DHT22;6658;53.080;7.428;2022-11-24T02:52:38;6.60;99.90
13186;DHT22;6658;53.080;7.428;2022-11-24T02:55:04;6.60;99.90
13186;DHT22;6658;53.080;7.428;2022-11-24T02:57:30;6.60;99.90
13186;DHT22;6658;53.080;7.428;2022-11-24T02:59:56;6.60;99.90
13186;DHT22;6658;53.080;7.428;2022-11-24T03:02:22;6.60;99.90
13186;DHT22;6658;53.080;7.428;2022-11-24T03:04:48;6.50;99.90
13186;DHT22;6658;53.080;7.428;2022-11-24T03:07:13;6.60;99.90
13186;DHT22;6658;53.080;7.428;2022-11-24T03:09:39;6.60;99.90
13186;DHT22;6658;53.080;7.428;2022-11-24T03:12:05;6.60;99.90
13186;DHT22;6658;53.080;7.428;2022-11-24T03:14:31;6.60;99.90
13186;DHT22;6658;53.080;7.428;2022-11-24T03:16:57;6.70;99.90
13186;DHT22;6658;53.080;7.428;2022-11-24T03:19:22;6.70;99.90
13186;DHT22;6658;53.080;7.428;2022-11-24T03:21:48;6.70;99.90
13186;DHT22;6658;53.080;7.428;2022-11-24T03:24:14;6.70;99.90
13186;DHT22;6658;53.080;7.428;2022-11-24T03:26:40;6.80;99.90
13186;DHT22;6658;53.080;7.428;2022-11-24T03:29:07;6.80;99.90
13186;DHT22;6658;53.080;7.428;2022-11-24T03:31:33;6.90;99.90
13186;DHT22;6658;53.080;7.428;2022-11-24T03:33:59;6.90;99.90
13186;DHT22;6658;53.080;7.428;2022-11-24T03:36:25;6.90;99.90
13186;DHT22;6658;53.080;7.428;2022-11-24T03:38:50;6.90;99.90
13186;DHT22;6658;53.080;7.428;2022-11-24T03:41:16;7.00;99.90
13186;DHT22;6658;53.080;7.428;2022-11-24T03:43:42;7.00;99.90
13186;DHT22;6658;53.080;7.428;2022-11-24T03:46:08;7.10;99.90
13186;DHT22;6658;53.080;7.428;2022-11-24T03:48:34;7.10;99.90
13186;DHT22;6658;53.080;7.428;2022-11-24T03:51:00;7.20;99.90
13186;DHT22;6658;53.080;7.428;2022-11-24T03:53:29;7.20;99.90
13186;DHT22;6658;53.080;7.428;2022-11-24T03:55:56;7.20;99.90
13186;DHT22;6658;53.080;7.428;2022-11-24T03:58:22;7.20;99.90
13186;DHT22;6658;53.080;7.428;2022-11-24T04:00:49;7.20;99.90
13186;DHT22;6658;53.080;7.428;2022-11-24T04:03:15;7.10;99.90
13186;DHT22;6658;53.080;7.428;2022-11-24T04:05:40;7.00;99.90
13186;DHT22;6658;53.080;7.428;2022-11-24T04:08:06;7.10;99.90
13186;DHT22;6658;53.080;7.428;2022-11-24T04:10:33;7.10;99.90
13186;DHT22;6658;53.080;7.428;2022-11-24T04:13:01;7.10;99.90
13186;DHT22;6658;53.080;7.428;2022-11-24T04:15:27;7.20;99.90
13186;DHT22;6658;53.080;7.428;2022-11-24T04:17:54;7.30;99.90
13186;DHT22;6658;53.080;7.428;2022-11-24T04:20:20;7.40;99.90
13186;DHT22;6658;53.080;7.428;2022-11-24T04:22:45;7.40;99.90
13186;DHT22;6658;53.080;7.428;2022-11-24T04:25:11;7.50;99.90
13186;DHT22;6658;53.080;7.428;2022-11-24T04:27:37;7.50;99.90
13186;DHT22;6658;53.080;7.428;2022-11-24T04:30:05;7.60;99.90
13186;DHT22;6658;53.080;7.428;2022-11-24T04:32:31;7.60;99.90
13186;DHT22;6658;53.080;7.428;2022-11-24T04:34:57;7.60;99.90
13186;DHT22;6658;53.080;7.428;2022-11-24T04:37:22;7.60;99.90
13186;DHT22;6658;53.080;7.428;2022-11-24T04:39:48;7.70;99.90
13186;DHT22;6658;53.080;7.428;2022-11-24T04:42:14;7.70;99.90
13186;DHT22;6658;53.080;7.428;2022-11-24T04:44:40;7.70;99.90
13186;DHT22;6658;53.080;7.428;2022-11-24T04:47:05;7.60;99.90
13186;DHT22;6658;53.080;7.428;2022-11-24T04:49:31;7.60;99.90
13186;DHT22;6658;53.080;7.428;2022-11-24T04:51:57;7.60;99.90
13186;DHT22;6658;53.080;7.428;2022-11-24T04:54:23;7.50;99.90
13186;DHT22;6658;53.080;7.428;2022-11-24T04:56:50;7.50;99.90
13186;DHT22;6658;53.080;7.428;2022-11-24T04:59:16;7.40;99.90
13186;DHT22;6658;53.080;7.428;2022-11-24T05:01:43;7.40;99.90
13186;DHT22;6658;53.080;7.428;2022-11-24T05:04:11;7.30;99.90
13186;DHT22;6658;53.080;7.428;2022-11-24T05:06:37;7.20;99.90
13186;DHT22;6658;53.080;7.428;2022-11-24T05:09:06;7.20;99.90
13186;DHT22;6658;53.080;7.428;2022-11-24T05:11:32;7.10;99.90
13186;DHT22;6658;53.080;7.428;2022-11-24T05:13:58;7.10;99.90
13186;DHT22;6658;53.080;7.428;2022-11-24T05:16:24;7.10;99.90
13186;DHT22;6658;53.080;7.428;2022-11-24T05:18:50;7.00;99.90
13186;DHT22;6658;53.080;7.428;2022-11-24T05:21:16;7.10;99.90
13186;DHT22;6658;53.080;7.428;2022-11-24T05:23:41;7.00;99.90
13186;DHT22;6658;53.080;7.428;2022-11-24T05:26:08;7.00;99.90
13186;DHT22;6658;53.080;7.428;2022-11-24T05:28:33;6.90;99.90
13186;DHT22;6658;53.080;7.428;2022-11-24T05:31:00;6.90;99.90
13186;DHT22;6658;53.080;7.428;2022-11-24T05:33:26;6.90;99.90
13186;DHT22;6658;53.080;7.428;2022-11-24T05:35:53;6.90;99.90
13186;DHT22;6658;53.080;7.428;2022-11-24T05:38:19;7.00;99.90
13186;DHT22;6658;53.080;7.428;2022-11-24T05:40:46;7.00;99.90
13186;DHT22;6658;53.080;7.428;2022-11-24T05:43:14;7.00;99.90
13186;DHT22;6658;53.080;7.428;2022-11-24T05:45:40;6.90;99.90
13186;DHT22;6658;53.080;7.428;2022-11-24T05:48:07;6.90;99.90
13186;DHT22;6658;53.080;7.428;2022-11-24T05:50:34;6.80;99.90
13186;DHT22;6658;53.080;7.428;2022-11-24T05:53:10;6.80;99.90
13186;DHT22;6658;53.080;7.428;2022-11-24T05:55:36;6.80;99.90
13186;DHT22;6658;53.080;7.428;2022-11-24T05:58:04;6.80;99.90
13186;DHT22;6658;53.080;7.428;2022-11-24T06:00:31;6.90;99.90
13186;DHT22;6658;53.080;7.428;2022-11-24T06:02:58;6.90;99.90
13186;DHT22;6658;53.080;7.428;2022-11-24T06:05:24;6.90;99.90
13186;DHT22;6658;53.080;7.428;2022-11-24T06:07:50;6.90;99.90
13186;DHT22;6658;53.080;7.428;2022-11-24T06:10:17;6.90;99.90
13186;DHT22;6658;53.080;7.428;2022-11-24T06:12:44;6.80;99.90
13186;DHT22;6658;53.080;7.428;2022-11-24T06:15:10;6.80;99.90
13186;DHT22;6658;53.080;7.428;2022-11-24T06:17:36;6.80;99.90
13186;DHT22;6658;53.080;7.428;2022-11-24T06:20:03;6.80;99.90
13186;DHT22;6658;53.080;7.428;2022-11-24T06:22:29;6.80;99.90
13186;DHT22;6658;53.080;7.428;2022-11-24T06:24:55;6.70;99.90
13186;DHT22;6658;53.080;7.428;2022-11-24T06:27:21;6.70;99.90
13186;DHT22;6658;53.080;7.428;2022-11-24T06:29:46;6.70;99.90
13186;DHT22;6658;53.080;7.428;2022-11-24T06:32:12;6.70;99.90
13186;DHT22;6658;53.080;7.428;2022-11-24T06:34:38;6.70;99.90
13186;DHT22;6658;53.080;7.428;2022-11-24T06:37:04;6.70;99.90
13186;DHT22;6658;53.080;7.428;2022-11-24T06:39:30;6.70;99.90
13186;DHT22;6658;53.080;7.428;2022-11-24T06:41:56;6.70;99.90
13186;DHT22;6658;53.080;7.428;2022-11-24T06:44:21;6.70;99.90
13186;DHT22;6658;53.080;7.428;2022-11-24T06:46:47;6.70;99.90
13186;DHT22;6658;53.080;7.428;2022-11-24T06:49:13;6.70;99.90
13186;DHT22;6658;53.080;7.428;2022-11-24T06:51:39;6.70;99.90
13186;DHT22;6658;53.080;7.428;2022-11-24T06:54:06;6.70;99.90
13186;DHT22;6658;53.080;7.428;2022-11-24T06:56:33;6.70;99.90
13186;DHT22;6658;53.080;7.428;2022-11-24T06:58:58;6.60;99.90
13186;DHT22;6658;53.080;7.428;2022-11-24T07:01:26;6.60;99.90
13186;DHT22;6658;53.080;7.428;2022-11-24T07:03:53;6.60;99.90
13186;DHT22;6658;53.080;7.428;2022-11-24T07:06:20;6.60;99.90
13186;DHT22;6658;53.080;7.428;2022-11-24T07:08:46;6.60;99.90
13186;DHT22;6658;53.080;7.428;2022-11-24T07:11:21;6.60;99.90
13186;DHT22;6658;53.080;7.428;2022-11-24T07:13:47;6.70;99.90
13186;DHT22;6658;53.080;7.428;2022-11-24T07:18:39;6.70;99.90
13186;DHT22;6658;53.080;7.428;2022-11-24T07:21:05;6.80;99.90
13186;DHT22;6658;53.080;7.428;2022-11-24T07:23:31;6.80;99.90
13186;DHT22;6658;53.080;7.428;2022-11-24T07:25:56;6.80;99.90
13186;DHT22;6658;53.080;7.428;2022-11-24T07:28:23;6.80;99.90
13186;DHT22;6658;53.080;7.428;2022-11-24T07:30:49;6.90;99.90
13186;DHT22;6658;53.080;7.428;2022-11-24T07:33:14;6.90;99.90
13186;DHT22;6658;53.080;7.428;2022-11-24T07:35:43;6.90;99.90
13186;DHT22;6658;53.080;7.428;2022-11-24T07:38:09;6.90;99.90
13186;DHT22;6658;53.080;7.428;2022-11-24T07:40:34;7.00;99.90
13186;DHT22;6658;53.080;7.428;2022-11-24T07:43:00;7.00;99.90
13186;DHT22;6658;53.080;7.428;2022-11-24T07:45:26;7.00;99.90
13186;DHT22;6658;53.080;7.428;2022-11-24T07:47:51;7.00;99.90
13186;DHT22;6658;53.080;7.428;2022-11-24T07:50:17;7.10;99.90
13186;DHT22;6658;53.080;7.428;2022-11-24T07:52:43;7.10;99.90
13186;DHT22;6658;53.080;7.428;2022-11-24T07:55:09;7.10;99.90
13186;DHT22;6658;53.080;7.428;2022-11-24T07:57:35;7.10;99.90
13186;DHT22;6658;53.080;7.428;2022-11-24T08:00:02;7.10;99.90
13186;DHT22;6658;53.080;7.428;2022-11-24T08:02:27;7.10;99.90
13186;DHT22;6658;53.080;7.428;2022-11-24T08:04:53;7.10;99.90
13186;DHT22;6658;53.080;7.428;2022-11-24T08:07:19;7.10;99.90
13186;DHT22;6658;53.080;7.428;2022-11-24T08:09:45;7.10;99.90
13186;DHT22;6658;53.080;7.428;2022-11-24T08:12:11;7.10;99.90
13186;DHT22;6658;53.080;7.428;2022-11-24T08:14:36;7.10;99.90
13186;DHT22;6658;53.080;7.428;2022-11-24T08:17:02;7.00;99.90
13186;DHT22;6658;53.080;7.428;2022-11-24T08:19:28;7.00;99.90
13186;DHT22;6658;53.080;7.428;2022-11-24T08:21:53;7.00;99.90
13186;DHT22;6658;53.080;7.428;2022-11-24T08:24:19;7.00;99.90
13186;DHT22;6658;53.080;7.428;2022-11-24T08:26:45;7.00;99.90
13186;DHT22;6658;53.080;7.428;2022-11-24T08:29:10;7.00;99.90
13186;DHT22;6658;53.080;7.428;2022-11-24T08:31:37;7.10;99.90
13186;DHT22;6658;53.080;7.428;2022-11-24T08:34:04;7.10;99.90
13186;DHT22;6658;53.080;7.428;2022-11-24T08:36:31;7.20;99.90
13186;DHT22;6658;53.080;7.428;2022-11-24T08:38:58;7.20;99.90
13186;DHT22;6658;53.080;7.428;2022-11-24T08:41:25;7.30;99.90
13186;DHT22;6658;53.080;7.428;2022-11-24T08:43:52;7.40;99.90
13186;DHT22;6658;53.080;7.428;2022-11-24T08:46:18;7.40;99.90
13186;DHT22;6658;53.080;7.428;2022-11-24T08:48:52;7.50;99.90
13186;DHT22;6658;53.080;7.428;2022-11-24T08:51:20;7.50;99.90
13186;DHT22;6658;53.080;7.428;2022-11-24T08:53:46;7.60;99.90
13186;DHT22;6658;53.080;7.428;2022-11-24T08:56:12;7.60;99.90
13186;DHT22;6658;53.080;7.428;2022-11-24T08:58:39;7.70;99.90
13186;DHT22;6658;53.080;7.428;2022-11-24T09:01:07;7.80;99.90
13186;DHT22;6658;53.080;7.428;2022-11-24T09:03:34;7.80;99.90
13186;DHT22;6658;53.080;7.428;2022-11-24T09:06:00;7.90;99.90
13186;DHT22;6658;53.080;7.428;2022-11-24T09:08:26;8.00;99.90
13186;DHT22;6658;53.080;7.428;2022-11-24T09:10:54;8.00;99.90
13186;DHT22;6658;53.080;7.428;2022-11-24T09:13:23;8.10;99.90
13186;DHT22;6658;53.080;7.428;2022-11-24T09:15:49;8.10;99.90
13186;DHT22;6658;53.080;7.428;2022-11-24T09:18:14;8.20;99.90
13186;DHT22;6658;53.080;7.428;2022-11-24T09:20:40;8.30;99.90
13186;DHT22;6658;53.080;7.428;2022-11-24T09:23:05;8.30;99.90
13186;DHT22;6658;53.080;7.428;2022-11-24T09:25:31;8.40;99.90
13186;DHT22;6658;53.080;7.428;2022-11-24T09:27:57;8.40;99.90
13186;DHT22;6658;53.080;7.428;2022-11-24T09:30:24;8.50;99.90
13186;DHT22;6658;53.080;7.428;2022-11-24T09:32:50;8.50;99.90
13186;DHT22;6658;53.080;7.428;2022-11-24T09:35:16;8.50;99.90
13186;DHT22;6658;53.080;7.428;2022-11-24T09:37:41;8.60;99.90
13186;DHT22;6658;53.080;7.428;2022-11-24T09:40:12;8.60;99.90
13186;DHT22;6658;53.080;7.428;2022-11-24T09:42:56;8.60;99.90
13186;DHT22;6658;53.080;7.428;2022-11-24T09:45:32;8.70;99.90
13186;DHT22;6658;53.080;7.428;2022-11-24T09:50:38;8.80;99.90
13186;DHT22;6658;53.080;7.428;2022-11-24T09:53:16;8.80;99.90
13186;DHT22;6658;53.080;7.428;2022-11-24T09:55:45;8.80;99.90
13186;DHT22;6658;53.080;7.428;2022-11-24T10:00:40;8.90;99.90
13186;DHT22;6658;53.080;7.428;2022-11-24T10:03:18;8.90;99.90
13186;DHT22;6658;53.080;7.428;2022-11-24T10:05:47;8.90;99.90
13186;DHT22;6658;53.080;7.428;2022-11-24T10:09:06;9.00;99.90
13186;DHT22;6658;53.080;7.428;2022-11-24T10:11:14;9.00;99.90
13186;DHT22;6658;53.080;7.428;2022-11-24T10:16:51;9.10;99.90
13186;DHT22;6658;53.080;7.428;2022-11-24T10:25:10;9.20;99.90
13186;DHT22;6658;53.080;7.428;2022-11-24T10:27:43;9.30;99.90
13186;DHT22;6658;53.080;7.428;2022-11-24T10:30:15;9.30;99.90
13186;DHT22;6658;53.080;7.428;2022-11-24T10:33:34;9.30;99.90
13186;DHT22;6658;53.080;7.428;2022-11-24T10:35:48;9.40;99.90
13186;DHT22;6658;53.080;7.428;2022-11-24T10:38:34;9.40;99.90
13186;DHT22;6658;53.080;7.428;2022-11-24T10:41:07;9.40;99.90
13186;DHT22;6658;53.080;7.428;2022-11-24T10:43:40;9.50;99.90
13186;DHT22;6658;53.080;7.428;2022-11-24T10:46:23;9.50;99.90
13186;DHT22;6658;53.080;7.428;2022-11-24T10:48:52;9.50;99.90
13186;DHT22;6658;53.080;7.428;2022-11-24T10:54:21;9.60;99.90
13186;DHT22;6658;53.080;7.428;2022-11-24T10:56:50;9.60;99.90
13186;DHT22;6658;53.080;7.428;2022-11-24T11:01:49;9.70;99.90
13186;DHT22;6658;53.080;7.428;2022-11-24T11:04:21;9.70;99.90
13186;DHT22;6658;53.080;7.428;2022-11-24T11:06:49;9.70;99.90
13186;DHT22;6658;53.080;7.428;2022-11-24T11:09:20;9.70;99.90
13186;DHT22;6658;53.080;7.428;2022-11-24T11:11:47;9.70;99.90
13186;DHT22;6658;53.080;7.428;2022-11-24T11:14:29;9.70;99.90
13186;DHT22;6658;53.080;7.428;2022-11-24T11:16:56;9.80;99.90
13186;DHT22;6658;53.080;7.428;2022-11-24T11:19:40;9.80;99.90
13186;DHT22;6658;53.080;7.428;2022-11-24T11:22:23;9.80;99.90
13186;DHT22;6658;53.080;7.428;2022-11-24T11:27:38;9.80;99.90
13186;DHT22;6658;53.080;7.428;2022-11-24T11:32:58;9.90;99.90
13186;DHT22;6658;53.080;7.428;2022-11-24T11:35:25;9.90;99.90
13186;DHT22;6658;53.080;7.428;2022-11-24T11:37:57;9.90;99.90
13186;DHT22;6658;53.080;7.428;2022-11-24T11:40:28;10.00;99.90
13186;DHT22;6658;53.080;7.428;2022-11-24T11:43:24;10.00;99.90
13186;DHT22;6658;53.080;7.428;2022-11-24T11:46:02;10.10;99.90
13186;DHT22;6658;53.080;7.428;2022-11-24T11:48:33;10.10;99.90
13186;DHT22;6658;53.080;7.428;2022-11-24T11:51:25;10.10;99.90
13186;DHT22;6658;53.080;7.428;2022-11-24T11:57:15;10.20;99.90
13186;DHT22;6658;53.080;7.428;2022-11-24T11:59:52;10.20;99.90
13186;DHT22;6658;53.080;7.428;2022-11-24T12:16:15;10.20;99.90
13186;DHT22;6658;53.080;7.428;2022-11-24T12:43:33;10.20;99.90
13186;DHT22;6658;53.080;7.428;2022-11-24T12:48:54;10.20;99.90
13186;DHT22;6658;53.080;7.428;2022-11-24T12:51:36;10.20;99.90
13186;DHT22;6658;53.080;7.428;2022-11-24T12:54:13;10.20;99.90
13186;DHT22;6658;53.080;7.428;2022-11-24T12:57:04;10.20;99.90
13186;DHT22;6658;53.080;7.428;2022-11-24T13:00:11;10.20;99.90
13186;DHT22;6658;53.080;7.428;2022-11-24T13:08:02;10.30;99.90
13186;DHT22;6658;53.080;7.428;2022-11-24T13:10:34;10.30;99.90
13186;DHT22;6658;53.080;7.428;2022-11-24T13:15:28;10.40;99.90
13186;DHT22;6658;53.080;7.428;2022-11-24T13:17:54;10.40;99.90
13186;DHT22;6658;53.080;7.428;2022-11-24T13:20:22;10.40;99.90
13186;DHT22;6658;53.080;7.428;2022-11-24T13:23:12;10.40;99.90
13186;DHT22;6658;53.080;7.428;2022-11-24T13:26:22;10.40;99.90
13186;DHT22;6658;53.080;7.428;2022-11-24T13:29:02;10.30;99.90
13186;DHT22;6658;53.080;7.428;2022-11-24T13:31:29;10.30;99.90
13186;DHT22;6658;53.080;7.428;2022-11-24T13:33:56;10.30;99.90
13186;DHT22;6658;53.080;7.428;2022-11-24T13:49:22;10.30;99.90
13186;DHT22;6658;53.080;7.428;2022-11-24T13:51:55;10.30;99.90
13186;DHT22;6658;53.080;7.428;2022-11-24T13:54:23;10.30;99.90
13186;DHT22;6658;53.080;7.428;2022-11-24T13:56:49;10.30;99.90
13186;DHT22;6658;53.080;7.428;2022-11-24T13:59:34;10.30;99.90
13186;DHT22;6658;53.080;7.428;2022-11-24T14:02:00;10.20;99.90
13186;DHT22;6658;53.080;7.428;2022-11-24T14:04:28;10.20;99.90
13186;DHT22;6658;53.080;7.428;2022-11-24T14:07:01;10.10;99.90
13186;DHT22;6658;53.080;7.428;2022-11-24T14:12:18;10.10;99.90
13186;DHT22;6658;53.080;7.428;2022-11-24T14:14:52;10.10;99.90
13186;DHT22;6658;53.080;7.428;2022-11-24T14:17:25;10.10;99.90
13186;DHT22;6658;53.080;7.428;2022-11-24T14:19:56;10.00;99.90
13186;DHT22;6658;53.080;7.428;2022-11-24T14:24:58;10.00;99.90
13186;DHT22;6658;53.080;7.428;2022-11-24T14:27:30;10.00;99.90
13186;DHT22;6658;53.080;7.428;2022-11-24T14:30:03;10.00;99.90
13186;DHT22;6658;53.080;7.428;2022-11-24T14:32:29;10.00;99.90
13186;DHT22;6658;53.080;7.428;2022-11-24T14:34:55;10.00;99.90
13186;DHT22;6658;53.080;7.428;2022-11-24T14:37:21;9.90;99.90
13186;DHT22;6658;53.080;7.428;2022-11-24T14:39:47;9.90;99.90
13186;DHT22;6658;53.080;7.428;2022-11-24T14:42:22;9.80;99.90
13186;DHT22;6658;53.080;7.428;2022-11-24T14:44:51;9.70;99.90
13186;DHT22;6658;53.080;7.428;2022-11-24T14:49:54;9.60;99.90
13186;DHT22;6658;53.080;7.428;2022-11-24T14:52:21;9.50;99.90
13186;DHT22;6658;53.080;7.428;2022-11-24T14:55:21;9.50;99.90
13186;DHT22;6658;53.080;7.428;2022-11-24T14:57:47;9.40;99.90
13186;DHT22;6658;53.080;7.428;2022-11-24T15:00:31;9.40;99.90
13186;DHT22;6658;53.080;7.428;2022-11-24T15:05:25;9.50;99.90
13186;DHT22;6658;53.080;7.428;2022-11-24T15:08:11;9.60;99.90
13186;DHT22;6658;53.080;7.428;2022-11-24T15:10:39;9.60;99.90
13186;DHT22;6658;53.080;7.428;2022-11-24T15:13:19;9.60;99.90
13186;DHT22;6658;53.080;7.428;2022-11-24T15:15:50;9.50;99.90
13186;DHT22;6658;53.080;7.428;2022-11-24T15:18:34;9.40;99.90
13186;DHT22;6658;53.080;7.428;2022-11-24T15:21:00;9.20;99.90
13186;DHT22;6658;53.080;7.428;2022-11-24T15:23:31;9.10;99.90
13186;DHT22;6658;53.080;7.428;2022-11-24T15:28:26;8.90;99.90
13186;DHT22;6658;53.080;7.428;2022-11-24T15:30:54;8.90;99.90
13186;DHT22;6658;53.080;7.428;2022-11-24T15:33:20;8.80;99.90
13186;DHT22;6658;53.080;7.428;2022-11-24T15:35:47;8.80;99.90
13186;DHT22;6658;53.080;7.428;2022-11-24T15:38:13;8.70;99.90
13186;DHT22;6658;53.080;7.428;2022-11-24T15:40:42;8.70;99.90
13186;DHT22;6658;53.080;7.428;2022-11-24T15:45:39;8.60;99.90
13186;DHT22;6658;53.080;7.428;2022-11-24T15:48:05;8.50;99.90
13186;DHT22;6658;53.080;7.428;2022-11-24T15:50:30;8.40;99.90
13186;DHT22;6658;53.080;7.428;2022-11-24T15:52:56;8.30;99.90
13186;DHT22;6658;53.080;7.428;2022-11-24T15:55:22;8.20;99.90
13186;DHT22;6658;53.080;7.428;2022-11-24T15:57:48;8.10;99.90
13186;DHT22;6658;53.080;7.428;2022-11-24T16:00:19;8.10;99.90
13186;DHT22;6658;53.080;7.428;2022-11-24T16:02:46;8.00;99.90
13186;DHT22;6658;53.080;7.428;2022-11-24T16:05:12;8.00;99.90
13186;DHT22;6658;53.080;7.428;2022-11-24T16:07:38;7.90;99.90
13186;DHT22;6658;53.080;7.428;2022-11-24T16:10:07;7.90;99.90
13186;DHT22;6658;53.080;7.428;2022-11-24T16:12:32;7.80;99.90
13186;DHT22;6658;53.080;7.428;2022-11-24T16:14:58;7.80;99.90
13186;DHT22;6658;53.080;7.428;2022-11-24T16:17:24;7.80;99.90
13186;DHT22;6658;53.080;7.428;2022-11-24T16:19:49;7.70;99.90
13186;DHT22;6658;53.080;7.428;2022-11-24T16:22:15;7.70;99.90
13186;DHT22;6658;53.080;7.428;2022-11-24T16:24:41;7.60;99.90
13186;DHT22;6658;53.080;7.428;2022-11-24T16:27:06;7.60;99.90
13186;DHT22;6658;53.080;7.428;2022-11-24T16:29:32;7.60;99.90
13186;DHT22;6658;53.080;7.428;2022-11-24T16:31:58;7.60;99.90
13186;DHT22;6658;53.080;7.428;2022-11-24T16:34:23;7.50;99.90
13186;DHT22;6658;53.080;7.428;2022-11-24T16:36:49;7.50;99.90
13186;DHT22;6658;53.080;7.428;2022-11-24T16:39:15;7.50;99.90
13186;DHT22;6658;53.080;7.428;2022-11-24T16:41:40;7.40;99.90
13186;DHT22;6658;53.080;7.428;2022-11-24T16:44:06;7.40;99.90
13186;DHT22;6658;53.080;7.428;2022-11-24T16:46:32;7.40;99.90
13186;DHT22;6658;53.080;7.428;2022-11-24T16:48:58;7.30;99.90
13186;DHT22;6658;53.080;7.428;2022-11-24T16:51:28;7.30;99.90
13186;DHT22;6658;53.080;7.428;2022-11-24T16:53:59;7.20;99.90
13186;DHT22;6658;53.080;7.428;2022-11-24T16:56:29;7.30;99.90
13186;DHT22;6658;53.080;7.428;2022-11-24T16:58:55;7.20;99.90
13186;DHT22;6658;53.080;7.428;2022-11-24T17:01:21;7.10;99.90
13186;DHT22;6658;53.080;7.428;2022-11-24T17:03:47;7.20;99.90
13186;DHT22;6658;53.080;7.428;2022-11-24T17:06:15;7.10;99.90
13186;DHT22;6658;53.080;7.428;2022-11-24T17:08:43;7.10;99.90
13186;DHT22;6658;53.080;7.428;2022-11-24T17:11:18;7.00;99.90
13186;DHT22;6658;53.080;7.428;2022-11-24T17:13:45;7.00;99.90
13186;DHT22;6658;53.080;7.428;2022-11-24T17:16:16;7.00;99.90
13186;DHT22;6658;53.080;7.428;2022-11-24T17:18:43;7.00;99.90
13186;DHT22;6658;53.080;7.428;2022-11-24T17:21:17;7.00;99.90
13186;DHT22;6658;53.080;7.428;2022-11-24T17:23:44;6.90;99.90
13186;DHT22;6658;53.080;7.428;2022-11-24T17:26:12;6.90;99.90
13186;DHT22;6658;53.080;7.428;2022-11-24T17:28:38;6.90;99.90
13186;DHT22;6658;53.080;7.428;2022-11-24T17:31:05;6.80;99.90
13186;DHT22;6658;53.080;7.428;2022-11-24T17:33:31;6.80;99.90
13186;DHT22;6658;53.080;7.428;2022-11-24T17:36:01;6.80;99.90
13186;DHT22;6658;53.080;7.428;2022-11-24T17:38:27;6.80;99.90
13186;DHT22;6658;53.080;7.428;2022-11-24T17:40:55;6.70;99.90
13186;DHT22;6658;53.080;7.428;2022-11-24T17:43:20;6.70;99.90
13186;DHT22;6658;53.080;7.428;2022-11-24T17:45:52;6.60;99.90
13186;DHT22;6658;53.080;7.428;2022-11-24T17:48:18;6.50;99.90
13186;DHT22;6658;53.080;7.428;2022-11-24T17:50:43;6.50;99.90
13186;DHT22;6658;53.080;7.428;2022-11-24T17:53:09;6.40;99.90
13186;DHT22;6658;53.080;7.428;2022-11-24T17:55:35;6.40;99.90
13186;DHT22;6658;53.080;7.428;2022-11-24T17:58:01;6.30;99.90
13186;DHT22;6658;53.080;7.428;2022-11-24T18:00:27;6.30;99.90
13186;DHT22;6658;53.080;7.428;2022-11-24T18:02:52;6.30;99.90
13186;DHT22;6658;53.080;7.428;2022-11-24T18:05:18;6.20;99.90